Time;durP1;ratioP1;P1;durP2;ratioP2;P2;SDS_P1;SDS_P2;PMS_P1;PMS_P2;Temp;Humidity;BMP_temperature;BMP_pressure;BME280_temperature;BME280_humidity;BME280_pressure;Samples;Min_cycle;Max_cycle;Signal;HPM_P1;HPM_P2
2022/12/02 00:00:23;;;;;;;74.80;35.25;;;3.40;99.90;;;;;;5095335;28;20032;-71
2022/12/02 00:02:48;;;;;;;72.50;34.50;;;3.40;99.90;;;;;;5095496;28;20047;-70
2022/12/02 00:05:14;;;;;;;68.28;34.08;;;3.40;99.90;;;;;;5080162;28;20079;-70
2022/12/02 00:07:41;;;;;;;73.68;34.97;;;3.70;99.90;;;;;;5070575;28;20040;-71
2022/12/02 00:10:24;;;;;;;76.07;35.97;;;3.40;99.90;;;;;;5089163;28;20043;-71
2022/12/02 00:12:49;;;;;;;;;;;3.30;99.90;;;;;;5102016;28;20053;-72
2022/12/02 00:15:35;;;;;;;68.32;31.95;;;3.30;99.90;;;;;;5078227;28;20010;-71
2022/12/02 00:18:00;;;;;;;64.45;29.83;;;3.30;99.90;;;;;;5088100;28;20488;-71
2022/12/02 00:20:26;;;;;;;62.38;30.05;;;3.30;99.90;;;;;;5086768;28;20043;-71
2022/12/02 00:22:52;;;;;;;60.78;30.65;;;3.30;99.90;;;;;;5089765;28;20040;-71
2022/12/02 00:25:18;;;;;;;58.45;29.48;;;3.30;99.90;;;;;;5041911;28;20048;-71
2022/12/02 00:27:44;;;;;;;54.85;28.17;;;3.30;99.90;;;;;;5074335;28;20498;-71
2022/12/02 00:30:10;;;;;;;52.03;27.48;;;3.30;99.90;;;;;;5058218;28;20052;-70
2022/12/02 00:32:36;;;;;;;51.40;27.13;;;3.30;99.90;;;;;;5086091;28;20047;-70
2022/12/02 00:35:02;;;;;;;48.25;26.15;;;3.20;99.90;;;;;;5080890;28;20090;-70
2022/12/02 00:37:27;;;;;;;48.67;25.98;;;3.20;99.90;;;;;;5078437;28;20048;-70
2022/12/02 00:39:53;;;;;;;49.53;26.40;;;3.20;99.90;;;;;;5090330;28;20048;-71
2022/12/02 00:42:18;;;;;;;49.75;25.15;;;3.40;99.90;;;;;;5057581;28;20056;-71
2022/12/02 00:47:28;;;;;;;47.47;24.42;;;3.20;99.90;;;;;;5087428;28;20047;-70
2022/12/02 00:49:54;;;;;;;44.55;24.83;;;3.30;99.90;;;;;;5075864;28;20127;-71
2022/12/02 00:52:19;;;;;;;44.35;24.02;;;3.70;99.90;;;;;;5094419;28;20121;-70
2022/12/02 00:54:45;;;;;;;43.55;23.38;;;3.50;99.90;;;;;;5096214;28;20079;-71
2022/12/02 00:57:11;;;;;;;44.63;24.35;;;3.20;99.90;;;;;;5083945;28;20118;-70
2022/12/02 00:59:36;;;;;;;44.80;23.30;;;3.30;99.90;;;;;;5099224;28;20074;-70
2022/12/02 01:02:02;;;;;;;42.88;23.95;;;3.10;99.90;;;;;;5079426;28;20047;-70
2022/12/02 01:04:29;;;;;;;42.10;23.00;;;3.00;99.90;;;;;;5080290;28;20404;-70
2022/12/02 01:06:55;;;;;;;43.15;23.15;;;2.90;99.90;;;;;;5091204;28;20427;-70
2022/12/02 01:09:20;;;;;;;41.97;22.00;;;2.90;99.90;;;;;;5098243;28;20042;-70
2022/12/02 01:11:46;;;;;;;42.92;22.25;;;2.90;99.90;;;;;;5094950;28;20040;-72
2022/12/02 01:14:12;;;;;;;43.05;22.63;;;2.90;99.90;;;;;;5074408;28;20118;-71
2022/12/02 01:16:37;;;;;;;42.65;22.55;;;2.90;99.90;;;;;;5046625;28;20090;-71
2022/12/02 01:19:03;;;;;;;42.88;21.88;;;3.80;99.90;;;;;;5078686;28;20106;-71
2022/12/02 01:21:29;;;;;;;41.90;22.30;;;2.90;99.90;;;;;;5060819;28;20063;-70
2022/12/02 01:23:54;;;;;;;41.03;23.02;;;2.90;99.90;;;;;;5088233;28;20063;-70
2022/12/02 01:26:20;;;;;;;44.80;23.83;;;2.80;99.90;;;;;;5063882;28;20040;-70
2022/12/02 01:28:46;;;;;;;43.35;23.42;;;2.90;99.90;;;;;;5089443;28;20503;-70
2022/12/02 01:31:13;;;;;;;43.65;24.10;;;2.90;99.90;;;;;;5093894;28;20531;-71
2022/12/02 01:33:39;;;;;;;39.47;21.50;;;2.80;99.90;;;;;;5067367;28;20056;-70
2022/12/02 01:36:05;;;;;;;39.08;21.60;;;2.80;99.90;;;;;;5061323;28;20099;-71
2022/12/02 01:38:31;;;;;;;39.58;20.45;;;2.80;99.90;;;;;;5090967;28;20044;-70
2022/12/02 01:40:58;;;;;;;38.22;21.25;;;2.80;99.90;;;;;;5057550;28;20113;-70
2022/12/02 01:43:24;;;;;;;40.15;21.35;;;2.80;99.90;;;;;;5092113;28;20135;-70
2022/12/02 01:45:50;;;;;;;36.17;20.83;;;2.70;99.90;;;;;;5088033;28;20051;-71
2022/12/02 01:48:16;;;;;;;38.75;21.55;;;2.80;99.90;;;;;;5097438;28;20040;-71
2022/12/02 01:50:43;;;;;;;39.80;22.33;;;3.00;99.90;;;;;;5096834;28;20066;-70
2022/12/02 01:53:09;;;;;;;40.08;20.50;;;2.80;99.90;;;;;;5084946;28;20044;-71
2022/12/02 01:55:35;;;;;;;43.30;23.48;;;2.80;99.90;;;;;;5079196;28;20039;-70
2022/12/02 01:58:01;;;;;;;40.65;22.42;;;2.80;99.90;;;;;;5094321;28;20048;-70
2022/12/02 02:00:27;;;;;;;45.40;24.80;;;2.70;99.90;;;;;;5078961;28;20044;-71
2022/12/02 02:02:53;;;;;;;41.80;23.27;;;2.70;99.90;;;;;;5088800;28;20051;-72
2022/12/02 02:05:24;;;;;;;42.10;23.77;;;2.70;99.90;;;;;;5090229;28;20059;-70
2022/12/02 02:07:52;;;;;;;43.22;23.15;;;2.70;99.90;;;;;;5080706;28;20487;-71
2022/12/02 02:10:20;;;;;;;44.28;24.63;;;2.80;99.90;;;;;;5084775;28;20043;-70
2022/12/02 02:12:46;;;;;;;47.63;25.20;;;2.80;99.90;;;;;;5078519;28;20048;-71
2022/12/02 02:15:13;;;;;;;47.33;25.92;;;2.90;99.90;;;;;;5087954;28;20051;-70
2022/12/02 02:17:40;;;;;;;44.20;26.38;;;2.70;99.90;;;;;;5082931;28;20109;-70
2022/12/02 02:20:09;;;;;;;47.63;27.25;;;2.70;99.90;;;;;;5079543;28;20047;-71
2022/12/02 02:22:45;;;;;;;45.83;26.63;;;2.70;99.90;;;;;;5079330;28;20052;-70
2022/12/02 02:25:14;;;;;;;47.17;26.58;;;2.70;99.90;;;;;;5097001;28;20514;-70
2022/12/02 02:27:41;;;;;;;45.22;26.30;;;2.60;99.90;;;;;;5096401;28;20054;-71
2022/12/02 02:30:07;;;;;;;44.70;24.95;;;2.60;99.90;;;;;;5071972;28;20044;-72
2022/12/02 02:32:33;;;;;;;45.28;26.77;;;2.60;99.90;;;;;;5090019;28;20044;-71
2022/12/02 02:34:59;;;;;;;44.33;25.65;;;2.70;99.90;;;;;;5072712;28;20063;-71
2022/12/02 02:37:25;;;;;;;47.25;27.20;;;2.60;99.90;;;;;;5096405;28;20043;-70
2022/12/02 02:39:51;;;;;;;44.05;23.92;;;2.60;99.90;;;;;;5082709;28;20043;-71
2022/12/02 02:42:17;;;;;;;45.70;26.02;;;2.60;99.90;;;;;;5096578;28;20411;-71
2022/12/02 02:44:43;;;;;;;46.42;25.83;;;2.70;99.90;;;;;;5092703;28;20043;-71
2022/12/02 02:47:09;;;;;;;46.83;26.42;;;2.60;99.90;;;;;;5069981;28;20101;-70
2022/12/02 02:49:35;;;;;;;49.72;27.98;;;2.60;99.90;;;;;;5079639;28;20438;-70
2022/12/02 02:52:00;;;;;;;48.13;27.38;;;2.70;99.90;;;;;;5075550;28;20040;-70
2022/12/02 02:54:26;;;;;;;44.13;25.40;;;3.00;99.90;;;;;;5073911;28;20487;-70
2022/12/02 02:56:52;;;;;;;44.33;25.20;;;2.60;99.90;;;;;;5076142;28;20102;-70
2022/12/02 02:59:18;;;;;;;41.38;24.63;;;2.70;99.90;;;;;;5088395;28;20105;-70
2022/12/02 03:01:47;;;;;;;41.85;23.83;;;2.60;99.90;;;;;;5082029;28;20042;-71
2022/12/02 03:04:16;;;;;;;40.58;21.83;;;2.60;99.90;;;;;;5085821;28;20459;-71
2022/12/02 03:06:42;;;;;;;39.13;21.88;;;2.60;99.90;;;;;;5074864;28;20047;-71
2022/12/02 03:09:12;;;;;;;40.85;22.08;;;2.50;99.90;;;;;;5087648;28;20036;-71
2022/12/02 03:11:39;;;;;;;38.60;20.83;;;2.70;99.90;;;;;;5076896;28;20057;-71
2022/12/02 03:14:06;;;;;;;40.78;23.27;;;2.90;99.90;;;;;;5096582;28;20043;-71
2022/12/02 03:16:32;;;;;;;40.38;21.65;;;2.60;99.90;;;;;;5082408;28;20048;-70
2022/12/02 03:18:59;;;;;;;42.28;23.83;;;2.80;99.90;;;;;;5061954;28;20130;-71
2022/12/02 03:21:25;;;;;;;42.50;22.45;;;3.50;99.90;;;;;;5092026;28;20052;-70
2022/12/02 03:23:54;;;;;;;40.92;20.58;;;3.00;99.90;;;;;;5058994;28;20063;-70
2022/12/02 03:26:20;;;;;;;41.85;22.38;;;2.70;99.90;;;;;;5094952;28;20126;-70
2022/12/02 03:28:47;;;;;;;40.65;22.33;;;2.60;99.90;;;;;;5068419;28;20044;-71
2022/12/02 03:31:13;;;;;;;43.92;23.80;;;2.50;99.90;;;;;;5089301;28;20047;-70
2022/12/02 03:33:41;;;;;;;44.33;22.88;;;2.50;99.90;;;;;;5079264;28;20047;-71
2022/12/02 03:36:08;;;;;;;44.60;22.20;;;2.90;99.90;;;;;;5089346;28;20047;-71
2022/12/02 03:38:34;;;;;;;43.33;22.70;;;2.50;99.90;;;;;;5070213;28;20039;-70
2022/12/02 03:41:03;;;;;;;40.70;22.33;;;2.50;99.90;;;;;;5078164;28;20338;-70
2022/12/02 03:43:30;;;;;;;42.97;22.85;;;2.70;99.90;;;;;;5085873;28;20052;-70
2022/12/02 03:45:56;;;;;;;41.97;22.00;;;2.50;99.90;;;;;;5074975;28;20079;-71
2022/12/02 03:48:24;;;;;;;48.60;23.00;;;2.70;99.90;;;;;;5095566;28;20071;-70
2022/12/02 03:50:51;;;;;;;48.33;24.15;;;2.60;99.90;;;;;;5080643;28;20048;-71
2022/12/02 03:53:17;;;;;;;52.90;26.52;;;2.60;99.90;;;;;;5075630;28;20058;-71
2022/12/02 03:55:43;;;;;;;53.67;25.40;;;3.20;99.90;;;;;;5058741;28;20048;-71
2022/12/02 03:58:09;;;;;;;53.05;27.13;;;2.50;99.90;;;;;;5073055;28;20516;-71
2022/12/02 04:00:35;;;;;;;52.67;26.80;;;2.50;99.90;;;;;;5085680;28;20040;-71
2022/12/02 04:03:02;;;;;;;53.72;26.58;;;2.70;99.90;;;;;;5092181;28;20399;-71
2022/12/02 04:05:27;;;;;;;53.67;27.08;;;2.50;99.90;;;;;;5086661;28;20122;-71
2022/12/02 04:07:53;;;;;;;56.88;28.75;;;2.70;99.90;;;;;;5089355;28;20153;-71
2022/12/02 04:10:19;;;;;;;53.33;28.02;;;3.30;99.90;;;;;;5072154;28;20044;-70
2022/12/02 04:12:44;;;;;;;53.00;26.65;;;2.50;99.90;;;;;;5083991;28;20050;-70
2022/12/02 04:15:10;;;;;;;52.55;27.90;;;2.50;99.90;;;;;;5092556;28;20483;-70
2022/12/02 04:17:36;;;;;;;59.17;28.52;;;2.50;99.90;;;;;;5095377;28;20047;-70
2022/12/02 04:20:04;;;;;;;53.00;26.00;;;2.50;99.90;;;;;;5082864;28;20043;-70
2022/12/02 04:22:30;;;;;;;57.45;27.58;;;2.50;99.90;;;;;;5083324;28;20047;-70
2022/12/02 04:24:57;;;;;;;54.20;25.35;;;2.40;99.90;;;;;;5075466;28;20056;-72
2022/12/02 04:27:23;;;;;;;58.47;28.75;;;2.40;99.90;;;;;;5064632;28;20212;-73
2022/12/02 04:29:49;;;;;;;56.50;28.58;;;2.40;99.90;;;;;;5098076;28;20139;-73
2022/12/02 04:32:15;;;;;;;55.85;26.70;;;2.40;99.90;;;;;;5099460;28;20044;-73
2022/12/02 04:34:40;;;;;;;59.20;28.38;;;2.40;99.90;;;;;;5089035;28;20103;-73
2022/12/02 04:37:06;;;;;;;59.28;29.23;;;2.40;99.90;;;;;;5077696;28;20039;-73
2022/12/02 04:39:32;;;;;;;56.00;27.25;;;2.40;99.90;;;;;;5082217;28;20123;-73
2022/12/02 04:41:57;;;;;;;51.28;25.50;;;2.30;99.90;;;;;;5081467;28;20151;-73
2022/12/02 04:44:23;;;;;;;57.15;27.60;;;2.40;99.90;;;;;;5064636;28;20047;-73
2022/12/02 04:46:49;;;;;;;58.75;27.60;;;2.50;99.90;;;;;;5088389;28;20039;-73
2022/12/02 04:49:15;;;;;;;58.75;27.80;;;2.40;99.90;;;;;;5082936;28;20055;-73
2022/12/02 04:51:40;;;;;;;56.97;28.50;;;2.40;99.90;;;;;;5085000;28;20479;-73
2022/12/02 04:54:06;;;;;;;52.00;26.70;;;2.30;99.90;;;;;;5078912;28;20055;-73
2022/12/02 04:56:31;;;;;;;60.70;27.58;;;2.40;99.90;;;;;;5060952;28;20158;-73
2022/12/02 04:58:57;;;;;;;59.40;28.98;;;2.40;99.90;;;;;;5078449;28;20044;-73
2022/12/02 05:01:23;;;;;;;56.47;26.73;;;2.40;99.90;;;;;;5096208;28;20122;-74
2022/12/02 05:03:49;;;;;;;59.58;27.85;;;2.30;99.90;;;;;;5081605;28;20051;-73
2022/12/02 05:06:14;;;;;;;57.55;27.15;;;2.40;99.90;;;;;;5107670;27;20510;-73
2022/12/02 05:08:40;;;;;;;58.13;26.88;;;2.30;99.90;;;;;;5078563;28;20040;-73
2022/12/02 05:11:06;;;;;;;59.65;27.85;;;2.40;99.90;;;;;;5091423;28;20039;-73
2022/12/02 05:13:31;;;;;;;61.53;28.55;;;2.40;99.90;;;;;;5078472;28;20095;-73
2022/12/02 05:15:57;;;;;;;58.35;27.00;;;2.40;99.90;;;;;;5086706;28;20052;-73
2022/12/02 05:18:23;;;;;;;63.92;27.75;;;2.30;99.90;;;;;;5078182;28;20047;-70
2022/12/02 05:20:48;;;;;;;59.33;27.80;;;2.30;99.90;;;;;;5069805;28;20078;-71
2022/12/02 05:23:14;;;;;;;56.60;28.17;;;2.30;99.90;;;;;;5098803;28;20443;-71
2022/12/02 05:25:40;;;;;;;61.08;28.83;;;2.30;99.90;;;;;;5090978;28;20044;-70
2022/12/02 05:28:05;;;;;;;58.85;27.65;;;2.50;99.90;;;;;;5091617;28;20050;-71
2022/12/02 05:30:31;;;;;;;54.17;26.42;;;2.30;99.90;;;;;;5078113;28;20126;-71
2022/12/02 05:32:57;;;;;;;58.50;27.15;;;2.30;99.90;;;;;;5078271;28;20044;-70
2022/12/02 05:35:23;;;;;;;57.78;27.48;;;2.30;99.90;;;;;;5076468;28;20506;-71
2022/12/02 05:37:48;;;;;;;59.92;28.83;;;2.40;99.90;;;;;;5085223;28;20054;-71
2022/12/02 05:40:14;;;;;;;67.00;29.55;;;2.40;99.90;;;;;;5068688;28;20313;-71
2022/12/02 05:42:41;;;;;;;64.70;29.27;;;2.30;99.90;;;;;;5077486;28;20051;-71
2022/12/02 05:45:17;;;;;;;62.63;28.27;;;2.30;99.90;;;;;;5104600;28;20495;-71
2022/12/02 05:47:47;;;;;;;59.75;28.75;;;2.30;99.90;;;;;;5094727;28;20095;-71
2022/12/02 05:50:14;;;;;;;62.58;30.27;;;2.20;99.90;;;;;;5086388;28;20043;-70
2022/12/02 05:52:40;;;;;;;60.30;26.65;;;2.20;99.90;;;;;;5096031;28;20051;-71
2022/12/02 05:55:20;;;;;;;68.60;30.75;;;2.30;99.90;;;;;;5077620;28;20047;-71
2022/12/02 05:57:47;;;;;;;67.18;32.03;;;2.30;99.90;;;;;;5079192;28;20040;-71
2022/12/02 06:00:20;;;;;;;71.05;31.58;;;2.20;99.90;;;;;;5081258;28;20047;-70
2022/12/02 06:02:57;;;;;;;68.93;29.88;;;2.10;99.90;;;;;;5082866;28;20491;-71
2022/12/02 06:05:24;;;;;;;74.93;32.35;;;2.10;99.90;;;;;;5076474;28;20056;-71
2022/12/02 06:08:04;;;;;;;74.47;31.70;;;2.20;99.90;;;;;;5077915;28;20047;-71
2022/12/02 06:10:31;;;;;;;73.78;33.03;;;2.10;99.90;;;;;;5088758;28;20126;-70
2022/12/02 06:13:00;;;;;;;74.72;33.30;;;2.30;99.90;;;;;;5069075;28;20075;-71
2022/12/02 06:15:34;;;;;;;75.88;32.60;;;2.10;99.90;;;;;;5077037;28;20519;-71
2022/12/02 06:17:59;;;;;;;73.35;33.28;;;2.20;99.90;;;;;;5077271;28;20059;-72
2022/12/02 06:20:29;;;;;;;73.50;32.70;;;2.10;99.90;;;;;;5079274;28;20050;-71
2022/12/02 06:22:55;;;;;;;68.10;30.80;;;2.10;99.90;;;;;;5084509;28;20052;-71
2022/12/02 06:25:27;;;;;;;69.38;31.35;;;2.10;99.90;;;;;;5077396;28;20484;-71
2022/12/02 06:28:08;;;;;;;74.10;33.25;;;2.10;99.90;;;;;;5089328;28;20047;-70
2022/12/02 06:30:34;;;;;;;71.55;35.53;;;2.10;99.90;;;;;;5065105;28;20040;-71
2022/12/02 06:33:00;;;;;;;81.00;39.15;;;2.00;99.90;;;;;;5066153;28;20098;-71
2022/12/02 06:35:29;;;;;;;77.97;37.13;;;2.00;99.90;;;;;;5055213;28;20044;-70
2022/12/02 06:37:59;;;;;;;83.28;39.35;;;2.50;99.90;;;;;;5085710;28;20126;-71
2022/12/02 06:40:35;;;;;;;70.90;34.28;;;2.00;99.90;;;;;;5090257;28;20036;-71
2022/12/02 06:43:09;;;;;;;76.75;36.08;;;2.00;99.90;;;;;;5078768;28;20475;-71
2022/12/02 06:45:35;;;;;;;74.72;36.35;;;2.20;99.90;;;;;;5066423;28;20040;-71
2022/12/02 06:48:23;;;;;;;74.20;36.80;;;2.00;99.90;;;;;;5095178;28;20047;-71
2022/12/02 06:50:49;;;;;;;68.15;30.85;;;2.00;99.90;;;;;;5074862;28;20036;-71
2022/12/02 06:53:36;;;;;;;74.55;34.45;;;2.00;99.90;;;;;;5086298;28;20054;-73
2022/12/02 06:56:24;;;;;;;71.00;34.15;;;2.00;99.90;;;;;;5096055;28;20043;-70
2022/12/02 06:58:55;;;;;;;75.35;33.72;;;2.00;99.90;;;;;;5079906;28;20356;-70
2022/12/02 07:01:30;;;;;;;69.53;33.00;;;2.00;99.90;;;;;;5090018;28;20047;-71
2022/12/02 07:04:04;;;;;;;72.68;33.67;;;2.00;99.90;;;;;;5085373;28;20039;-71
2022/12/02 07:06:32;;;;;;;69.28;30.80;;;2.00;99.90;;;;;;5092667;28;20038;-71
2022/12/02 07:09:14;;;;;;;66.75;33.03;;;2.40;99.90;;;;;;5079714;28;20089;-71
2022/12/02 07:11:50;;;;;;;;;;;2.00;99.90;;;;;;5071046;28;20118;-71
2022/12/02 07:14:34;;;;;;;59.78;25.88;;;2.10;99.90;;;;;;5072916;28;19921;-71
2022/12/02 07:17:08;;;;;;;67.60;31.65;;;2.10;99.90;;;;;;5082945;28;20058;-71
2022/12/02 07:19:37;;;;;;;70.40;34.45;;;2.10;99.90;;;;;;5082023;28;20105;-72
2022/12/02 07:22:19;;;;;;;75.93;35.72;;;2.00;99.90;;;;;;5078026;28;20032;-71
2022/12/02 07:25:08;;;;;;;69.60;32.20;;;2.00;99.90;;;;;;5068359;28;20047;-72
2022/12/02 07:27:37;;;;;;;74.05;33.97;;;2.00;99.90;;;;;;5083465;28;20375;-71
2022/12/02 07:30:24;;;;;;;74.40;32.20;;;2.00;99.90;;;;;;5083195;28;20295;-71
2022/12/02 07:32:50;;;;;;;72.05;33.50;;;2.10;99.90;;;;;;5086646;28;20494;-71
2022/12/02 07:35:16;;;;;;;72.28;33.70;;;2.10;99.90;;;;;;5083319;28;20608;-72
2022/12/02 07:37:42;;;;;;;75.55;34.78;;;2.10;99.90;;;;;;5081663;28;20047;-72
2022/12/02 07:40:08;;;;;;;76.07;34.25;;;2.10;99.90;;;;;;5089268;28;20032;-71
2022/12/02 07:42:34;;;;;;;74.57;34.95;;;2.10;99.90;;;;;;5066466;28;20121;-71
2022/12/02 07:45:00;;;;;;;76.18;34.83;;;2.10;99.90;;;;;;5083796;28;20074;-71
2022/12/02 07:47:25;;;;;;;71.82;33.35;;;2.20;99.90;;;;;;5073294;28;20032;-71
2022/12/02 07:49:51;;;;;;;81.63;37.50;;;2.40;99.90;;;;;;5091871;28;20047;-71
2022/12/02 07:52:17;;;;;;;75.22;35.80;;;2.10;99.90;;;;;;5056671;28;20524;-71
2022/12/02 07:54:42;;;;;;;81.90;35.45;;;2.20;99.90;;;;;;5089090;28;20046;-71
2022/12/02 07:57:08;;;;;;;77.43;36.35;;;2.20;99.90;;;;;;5085603;28;20097;-71
2022/12/02 07:59:34;;;;;;;77.47;36.10;;;2.10;99.90;;;;;;5066232;28;20047;-70
2022/12/02 08:01:59;;;;;;;80.20;35.10;;;2.30;99.90;;;;;;5085701;28;20042;-71
2022/12/02 08:04:25;;;;;;;79.82;34.10;;;2.20;99.90;;;;;;5086958;28;20479;-71
2022/12/02 08:06:51;;;;;;;83.22;36.88;;;2.30;99.90;;;;;;5087495;28;20050;-71
2022/12/02 08:09:16;;;;;;;76.45;34.40;;;2.20;99.90;;;;;;5060004;28;20489;-72
2022/12/02 08:11:42;;;;;;;76.60;34.83;;;2.20;99.90;;;;;;5084353;28;20044;-71
2022/12/02 08:14:11;;;;;;;78.05;34.75;;;2.20;99.90;;;;;;5086607;28;20050;-71
2022/12/02 08:16:36;;;;;;;76.65;33.00;;;2.20;99.90;;;;;;5090622;28;20048;-71
2022/12/02 08:19:02;;;;;;;74.38;33.22;;;2.20;99.90;;;;;;5103641;28;20044;-71
2022/12/02 08:21:29;;;;;;;74.75;31.48;;;2.80;99.90;;;;;;5065925;28;20078;-70
2022/12/02 08:23:55;;;;;;;79.78;36.58;;;2.40;99.90;;;;;;5078610;28;20097;-70
2022/12/02 08:26:21;;;;;;;74.18;32.20;;;2.20;99.90;;;;;;5084498;28;20118;-70
2022/12/02 08:28:47;;;;;;;78.22;32.00;;;2.30;99.90;;;;;;5069760;28;20089;-72
2022/12/02 08:31:12;;;;;;;93.68;43.17;;;2.20;99.90;;;;;;5074661;28;20044;-71
2022/12/02 08:33:38;;;;;;;98.18;45.88;;;2.40;99.90;;;;;;5079421;28;20047;-71
2022/12/02 08:36:04;;;;;;;83.43;33.70;;;2.30;99.90;;;;;;5079545;28;20115;-71
2022/12/02 08:38:30;;;;;;;93.30;40.38;;;2.30;99.90;;;;;;5086484;28;20483;-71
2022/12/02 08:40:56;;;;;;;72.07;30.70;;;2.20;99.90;;;;;;5067909;28;20070;-71
2022/12/02 08:43:21;;;;;;;84.20;34.15;;;2.20;99.90;;;;;;5087561;28;20480;-71
2022/12/02 08:45:47;;;;;;;88.35;36.30;;;2.30;99.90;;;;;;5077449;28;20046;-72
2022/12/02 08:48:13;;;;;;;81.85;33.80;;;2.30;99.90;;;;;;5084165;28;21011;-71
2022/12/02 08:50:39;;;;;;;82.53;33.05;;;2.30;99.90;;;;;;5069705;28;20039;-71
2022/12/02 08:53:05;;;;;;;92.50;40.65;;;2.30;99.90;;;;;;5080377;28;20402;-72
2022/12/02 08:55:31;;;;;;;92.28;38.85;;;2.30;99.90;;;;;;5083946;28;20044;-73
2022/12/02 08:57:57;;;;;;;90.50;36.10;;;2.30;99.90;;;;;;5077738;28;20051;-70
2022/12/02 09:00:22;;;;;;;85.88;33.97;;;2.50;99.90;;;;;;5092515;28;20051;-71
2022/12/02 09:02:48;;;;;;;86.85;35.45;;;2.30;99.90;;;;;;5088138;28;20114;-71
2022/12/02 09:05:14;;;;;;;89.25;37.05;;;2.30;99.90;;;;;;5069677;28;20051;-72
2022/12/02 09:07:40;;;;;;;88.22;37.28;;;2.60;99.90;;;;;;5088174;28;20054;-71
2022/12/02 09:10:08;;;;;;;88.45;36.03;;;2.30;99.90;;;;;;5074852;28;20040;-70
2022/12/02 09:12:33;;;;;;;80.03;34.55;;;2.30;99.90;;;;;;5078491;28;20078;-71
2022/12/02 09:14:59;;;;;;;79.25;31.25;;;2.30;99.90;;;;;;5073614;28;20075;-70
2022/12/02 09:17:25;;;;;;;84.78;37.03;;;2.70;99.90;;;;;;5068152;28;20071;-72
2022/12/02 09:19:50;;;;;;;90.70;37.47;;;2.40;99.90;;;;;;5086483;28;20483;-71
2022/12/02 09:22:16;;;;;;;91.07;41.22;;;2.30;99.90;;;;;;5099989;28;20094;-71
2022/12/02 09:24:42;;;;;;;90.47;38.92;;;2.30;99.90;;;;;;5074937;28;20051;-71
2022/12/02 09:27:08;;;;;;;95.70;38.85;;;2.30;99.90;;;;;;5098067;28;20057;-71
2022/12/02 09:29:33;;;;;;;101.03;40.42;;;2.30;99.90;;;;;;5083840;28;20471;-70
2022/12/02 09:31:59;;;;;;;102.18;37.78;;;2.30;99.90;;;;;;5086396;28;20070;-71
2022/12/02 09:34:25;;;;;;;92.68;39.13;;;2.20;99.90;;;;;;5095494;28;20532;-71
2022/12/02 09:36:51;;;;;;;80.30;36.05;;;2.20;99.90;;;;;;5076850;28;20083;-72
2022/12/02 09:39:17;;;;;;;69.57;30.58;;;2.20;99.90;;;;;;5096268;28;20181;-71
2022/12/02 09:41:43;;;;;;;68.10;29.85;;;2.80;99.90;;;;;;5068202;28;20048;-71
2022/12/02 09:44:09;;;;;;;67.05;28.30;;;2.20;99.90;;;;;;5075714;28;20063;-69
2022/12/02 09:46:36;;;;;;;63.60;29.75;;;2.90;99.90;;;;;;5077080;28;20099;-69
2022/12/02 09:49:03;;;;;;;63.70;28.38;;;2.20;99.90;;;;;;5107634;28;20196;-70
2022/12/02 09:51:28;;;;;;;62.85;27.30;;;2.20;99.90;;;;;;5082079;28;20043;-72
2022/12/02 09:53:55;;;;;;;61.95;26.70;;;2.20;99.90;;;;;;5068336;28;20050;-70
2022/12/02 09:56:21;;;;;;;55.67;24.63;;;2.30;99.90;;;;;;5083114;28;20055;-70
2022/12/02 09:58:49;;;;;;;55.08;24.40;;;2.30;99.90;;;;;;5093428;28;20040;-70
2022/12/02 10:01:15;;;;;;;57.38;24.38;;;2.30;99.90;;;;;;5088460;28;20094;-70
2022/12/02 10:03:44;;;;;;;50.90;24.60;;;2.50;99.90;;;;;;5085067;28;20047;-70
2022/12/02 10:06:27;;;;;;;49.60;23.33;;;2.20;99.90;;;;;;5101463;28;20446;-71
2022/12/02 10:08:56;;;;;;;50.33;22.77;;;2.20;99.90;;;;;;5079331;28;20043;-71
2022/12/02 10:11:28;;;;;;;48.63;22.02;;;3.10;99.90;;;;;;5071423;28;20494;-70
2022/12/02 10:13:55;;;;;;;61.08;27.35;;;2.20;99.90;;;;;;5081789;28;20039;-70
2022/12/02 10:16:21;;;;;;;56.15;25.63;;;2.20;99.90;;;;;;5058446;28;20053;-71
2022/12/02 10:18:48;;;;;;;53.95;23.60;;;2.20;99.90;;;;;;5086116;28;20119;-72
2022/12/02 10:21:14;;;;;;;49.42;22.90;;;2.30;99.90;;;;;;5081311;28;20510;-71
2022/12/02 10:23:56;;;;;;;52.13;24.70;;;2.60;99.90;;;;;;5086768;28;20094;-73
2022/12/02 10:26:22;;;;;;;48.42;22.52;;;2.30;99.90;;;;;;5085436;28;20071;-72
2022/12/02 10:29:05;;;;;;;53.20;25.33;;;2.60;99.90;;;;;;5087971;28;20051;-70
2022/12/02 10:31:31;;;;;;;54.53;26.38;;;2.50;99.90;;;;;;5089613;28;20126;-71
2022/12/02 10:33:59;;;;;;;51.88;26.30;;;2.20;99.90;;;;;;5090264;28;20032;-70
2022/12/02 10:36:41;;;;;;;55.67;27.10;;;2.20;99.90;;;;;;5085593;28;20098;-71
2022/12/02 10:39:29;;;;;;;56.38;27.92;;;2.20;99.90;;;;;;5088123;28;20043;-71
2022/12/02 10:42:03;;;;;;;61.75;28.33;;;2.20;99.90;;;;;;5094975;28;20185;-71
2022/12/02 10:44:38;;;;;;;63.47;29.20;;;2.30;99.90;;;;;;5064670;28;20051;-70
2022/12/02 10:47:15;;;;;;;66.75;31.13;;;2.10;99.90;;;;;;5091709;28;20044;-70
2022/12/02 10:49:55;;;;;;;70.78;30.48;;;2.10;99.90;;;;;;5091646;28;20067;-71
2022/12/02 10:52:46;;;;;;;68.53;31.08;;;2.00;99.90;;;;;;5076319;28;20411;-71
2022/12/02 10:55:13;;;;;;;72.07;32.08;;;2.10;99.90;;;;;;5082853;28;20491;-71
2022/12/02 10:57:41;;;;;;;74.45;31.25;;;2.10;99.90;;;;;;5095753;28;20471;-70
2022/12/02 11:00:22;;;;;;;68.63;30.23;;;2.10;99.90;;;;;;5091779;28;20434;-70
2022/12/02 11:02:57;;;;;;;78.07;33.30;;;2.10;99.90;;;;;;5091666;28;20044;-71
2022/12/02 11:05:31;;;;;;;75.43;34.97;;;2.10;99.90;;;;;;5095571;28;20039;-71
2022/12/02 11:08:03;;;;;;;73.50;33.75;;;2.10;99.90;;;;;;5082689;28;20559;-70
2022/12/02 11:10:36;;;;;;;;;;;2.10;99.90;;;;;;5073455;28;20044;-71
2022/12/02 11:13:29;;;;;;;69.55;30.55;;;2.20;99.90;;;;;;5085432;28;19964;-71
2022/12/02 11:16:15;;;;;;;73.38;33.15;;;2.20;99.90;;;;;;5074562;28;20460;-72
2022/12/02 11:18:54;;;;;;;73.05;34.28;;;2.80;99.90;;;;;;5075181;28;20043;-70
2022/12/02 11:21:26;;;;;;;76.57;33.28;;;2.20;99.90;;;;;;5091426;28;20098;-71
2022/12/02 11:24:23;;;;;;;78.18;34.83;;;2.20;99.90;;;;;;5095639;28;20438;-72
2022/12/02 11:27:03;;;;;;;75.35;32.30;;;2.30;99.90;;;;;;5082756;28;20079;-69
2022/12/02 11:29:32;;;;;;;75.05;33.80;;;2.30;99.90;;;;;;5085144;28;20048;-71
2022/12/02 11:32:15;;;;;;;72.30;34.88;;;2.30;99.90;;;;;;5073982;28;20032;-69
2022/12/02 11:35:00;;;;;;;80.85;38.55;;;2.30;99.90;;;;;;5090176;28;20055;-71
2022/12/02 11:37:29;;;;;;;81.22;41.08;;;2.30;99.90;;;;;;5079311;28;20050;-71
2022/12/02 11:39:57;;;;;;;80.07;37.92;;;2.30;99.90;;;;;;5078092;28;20178;-73
2022/12/02 11:42:23;;;;;;;77.15;36.17;;;2.50;99.90;;;;;;5091580;28;20056;-71
2022/12/02 11:44:49;;;;;;;80.30;38.50;;;2.30;99.90;;;;;;5074182;28;20075;-70
2022/12/02 11:47:32;;;;;;;77.75;42.60;;;2.30;99.90;;;;;;5064626;28;20034;-71
2022/12/02 11:50:12;;;;;;;78.70;38.60;;;2.20;99.90;;;;;;5071137;28;20487;-72
2022/12/02 11:52:41;;;;;;;80.35;40.28;;;2.20;99.90;;;;;;5078052;28;20102;-72
2022/12/02 11:55:19;;;;;;;77.68;39.53;;;2.20;99.90;;;;;;5072047;28;20071;-70
2022/12/02 11:57:46;;;;;;;80.43;39.55;;;2.20;99.90;;;;;;5061321;28;20063;-71
2022/12/02 12:00:18;;;;;;;68.35;29.65;;;2.40;99.90;;;;;;5066166;28;20044;-71
2022/12/02 12:02:44;;;;;;;71.45;34.28;;;2.30;99.90;;;;;;5084596;28;20044;-71
2022/12/02 12:05:11;;;;;;;75.60;37.83;;;2.30;99.90;;;;;;5073877;28;20509;-72
2022/12/02 12:07:55;;;;;;;80.90;38.78;;;2.30;99.90;;;;;;5051284;28;20051;-70
2022/12/02 12:10:33;;;;;;;70.75;35.03;;;2.40;99.90;;;;;;5081669;28;20036;-73
2022/12/02 12:13:23;;;;;;;73.47;37.60;;;2.30;99.90;;;;;;5091128;28;20069;-71
2022/12/02 12:16:00;;;;;;;70.93;36.85;;;2.30;99.90;;;;;;5078291;28;20417;-74
2022/12/02 12:18:38;;;;;;;75.32;37.78;;;2.40;99.90;;;;;;5086618;28;20472;-70
2022/12/02 12:21:04;;;;;;;76.90;38.22;;;2.40;99.90;;;;;;5085637;28;20055;-71
2022/12/02 12:23:39;;;;;;;72.40;37.58;;;2.40;99.90;;;;;;5088037;28;20047;-71
2022/12/02 12:26:06;;;;;;;70.43;35.72;;;2.40;99.90;;;;;;5064887;28;20436;-74
2022/12/02 12:28:35;;;;;;;72.50;36.97;;;2.40;99.90;;;;;;5081252;28;20070;-70
2022/12/02 12:31:03;;;;;;;62.03;28.52;;;2.40;99.90;;;;;;5075795;28;20040;-73
2022/12/02 12:33:30;;;;;;;70.35;35.63;;;3.20;99.90;;;;;;5085968;28;20101;-72
2022/12/02 12:35:56;;;;;;;71.35;36.15;;;2.40;99.90;;;;;;5083419;28;20553;-70
2022/12/02 12:38:25;;;;;;;74.80;39.33;;;2.40;99.90;;;;;;5065018;28;20938;-70
2022/12/02 12:40:50;;;;;;;74.80;37.50;;;2.40;99.90;;;;;;5087782;28;20383;-71
2022/12/02 12:43:16;;;;;;;75.55;41.08;;;3.30;99.90;;;;;;5056615;28;20101;-70
2022/12/02 12:45:42;;;;;;;72.75;38.83;;;2.40;99.90;;;;;;5065708;28;20052;-70
2022/12/02 12:48:07;;;;;;;74.45;37.90;;;2.40;99.90;;;;;;5051609;28;20032;-71